sensor_id;sensor_type;location;lat;lon;timestamp;P1;durP1;ratioP1;P2;durP2;ratioP2
80963;SDS011;70425;59.322;13.486;2023-09-19T00:02:13;33.40;;;19.20;;
80963;SDS011;70425;59.322;13.486;2023-09-19T00:05:06;31.60;;;18.57;;
80963;SDS011;70425;59.322;13.486;2023-09-19T00:23:25;34.50;;;21.20;;
80963;SDS011;70425;59.322;13.486;2023-09-19T00:39:28;33.10;;;21.43;;
80963;SDS011;70425;59.322;13.486;2023-09-19T00:59:59;44.27;;;22.43;;
80963;SDS011;70425;59.322;13.486;2023-09-19T01:22:07;42.93;;;24.83;;
80963;SDS011;70425;59.322;13.486;2023-09-19T01:28:36;42.53;;;23.10;;
80963;SDS011;70425;59.322;13.486;2023-09-19T01:31:37;43.57;;;22.53;;
80963;SDS011;70425;59.322;13.486;2023-09-19T01:34:44;45.03;;;23.30;;
80963;SDS011;70425;59.322;13.486;2023-09-19T01:37:36;44.27;;;24.20;;
80963;SDS011;70425;59.322;13.486;2023-09-19T01:40:34;43.17;;;24.03;;
80963;SDS011;70425;59.322;13.486;2023-09-19T02:58:06;37.37;;;20.77;;
80963;SDS011;70425;59.322;13.486;2023-09-19T03:01:37;31.73;;;19.53;;
80963;SDS011;70425;59.322;13.486;2023-09-19T03:04:28;40.80;;;22.57;;
80963;SDS011;70425;59.322;13.486;2023-09-19T03:07:20;40.37;;;23.40;;
80963;SDS011;70425;59.322;13.486;2023-09-19T03:14:10;41.13;;;21.93;;
80963;SDS011;70425;59.322;13.486;2023-09-19T03:37:42;45.10;;;25.83;;
80963;SDS011;70425;59.322;13.486;2023-09-19T03:40:45;40.63;;;23.87;;
80963;SDS011;70425;59.322;13.486;2023-09-19T03:54:03;42.17;;;23.70;;
80963;SDS011;70425;59.322;13.486;2023-09-19T03:57:26;47.93;;;25.43;;
80963;SDS011;70425;59.322;13.486;2023-09-19T04:00:54;44.63;;;24.60;;
80963;SDS011;70425;59.322;13.486;2023-09-19T04:11:20;48.07;;;25.33;;
80963;SDS011;70425;59.322;13.486;2023-09-19T04:14:28;41.87;;;25.67;;
80963;SDS011;70425;59.322;13.486;2023-09-19T04:20:44;46.67;;;25.00;;
80963;SDS011;70425;59.322;13.486;2023-09-19T04:23:40;50.77;;;26.17;;
80963;SDS011;70425;59.322;13.486;2023-09-19T04:45:58;31.20;;;17.43;;
80963;SDS011;70425;59.322;13.486;2023-09-19T04:48:48;37.60;;;21.00;;
80963;SDS011;70425;59.322;13.486;2023-09-19T04:51:38;34.97;;;21.97;;
80963;SDS011;70425;59.322;13.486;2023-09-19T04:54:28;36.50;;;20.17;;
80963;SDS011;70425;59.322;13.486;2023-09-19T04:57:19;35.20;;;21.07;;
80963;SDS011;70425;59.322;13.486;2023-09-19T05:13:50;31.60;;;19.50;;
80963;SDS011;70425;59.322;13.486;2023-09-19T05:29:58;25.60;;;16.87;;
80963;SDS011;70425;59.322;13.486;2023-09-19T06:00:43;21.43;;;13.33;;
80963;SDS011;70425;59.322;13.486;2023-09-19T06:06:24;22.03;;;11.93;;
80963;SDS011;70425;59.322;13.486;2023-09-19T06:09:17;22.10;;;12.70;;
80963;SDS011;70425;59.322;13.486;2023-09-19T06:12:09;27.50;;;15.30;;
80963;SDS011;70425;59.322;13.486;2023-09-19T06:30:33;19.70;;;13.13;;
80963;SDS011;70425;59.322;13.486;2023-09-19T06:44:02;21.07;;;10.50;;
80963;SDS011;70425;59.322;13.486;2023-09-19T06:46:51;20.50;;;11.97;;
80963;SDS011;70425;59.322;13.486;2023-09-19T07:00:53;14.13;;;9.70;;
80963;SDS011;70425;59.322;13.486;2023-09-19T07:17:33;8.80;;;5.57;;
80963;SDS011;70425;59.322;13.486;2023-09-19T07:35:20;7.37;;;3.47;;
80963;SDS011;70425;59.322;13.486;2023-09-19T07:38:09;11.83;;;3.90;;
80963;SDS011;70425;59.322;13.486;2023-09-19T08:07:42;3.53;;;1.60;;
80963;SDS011;70425;59.322;13.486;2023-09-19T08:10:34;4.97;;;1.20;;
80963;SDS011;70425;59.322;13.486;2023-09-19T08:13:24;6.17;;;1.37;;
80963;SDS011;70425;59.322;13.486;2023-09-19T08:33:26;4.80;;;1.40;;
80963;SDS011;70425;59.322;13.486;2023-09-19T08:36:14;1.67;;;1.00;;
80963;SDS011;70425;59.322;13.486;2023-09-19T08:39:04;4.60;;;1.20;;
80963;SDS011;70425;59.322;13.486;2023-09-19T08:41:57;4.47;;;1.10;;
80963;SDS011;70425;59.322;13.486;2023-09-19T08:44:46;3.37;;;1.30;;
80963;SDS011;70425;59.322;13.486;2023-09-19T08:47:37;2.53;;;1.20;;
80963;SDS011;70425;59.322;13.486;2023-09-19T08:50:30;4.07;;;1.07;;
80963;SDS011;70425;59.322;13.486;2023-09-19T08:53:27;3.53;;;0.73;;
80963;SDS011;70425;59.322;13.486;2023-09-19T08:56:21;2.27;;;0.80;;
80963;SDS011;70425;59.322;13.486;2023-09-19T08:59:12;2.57;;;0.70;;
80963;SDS011;70425;59.322;13.486;2023-09-19T09:02:01;2.17;;;1.10;;
80963;SDS011;70425;59.322;13.486;2023-09-19T09:18:29;0.70;;;0.70;;
80963;SDS011;70425;59.322;13.486;2023-09-19T09:24:00;4.07;;;0.90;;
80963;SDS011;70425;59.322;13.486;2023-09-19T09:26:54;2.20;;;0.90;;
80963;SDS011;70425;59.322;13.486;2023-09-19T09:29:44;4.07;;;0.87;;
80963;SDS011;70425;59.322;13.486;2023-09-19T09:32:35;3.80;;;1.10;;
80963;SDS011;70425;59.322;13.486;2023-09-19T09:35:25;1.67;;;1.03;;
80963;SDS011;70425;59.322;13.486;2023-09-19T09:38:14;3.93;;;1.20;;
80963;SDS011;70425;59.322;13.486;2023-09-19T09:41:05;3.13;;;1.03;;
80963;SDS011;70425;59.322;13.486;2023-09-19T09:43:53;2.23;;;1.00;;
80963;SDS011;70425;59.322;13.486;2023-09-19T09:46:43;2.80;;;1.10;;
80963;SDS011;70425;59.322;13.486;2023-09-19T09:50:04;2.17;;;0.90;;
80963;SDS011;70425;59.322;13.486;2023-09-19T09:52:55;3.80;;;1.03;;
80963;SDS011;70425;59.322;13.486;2023-09-19T09:55:59;3.67;;;1.17;;
80963;SDS011;70425;59.322;13.486;2023-09-19T09:58:50;2.67;;;1.30;;
80963;SDS011;70425;59.322;13.486;2023-09-19T10:01:59;3.13;;;1.50;;
80963;SDS011;70425;59.322;13.486;2023-09-19T10:04:51;8.50;;;1.30;;
80963;SDS011;70425;59.322;13.486;2023-09-19T10:18:31;5.13;;;1.50;;
80963;SDS011;70425;59.322;13.486;2023-09-19T10:21:17;7.60;;;1.30;;
80963;SDS011;70425;59.322;13.486;2023-09-19T10:24:08;9.13;;;1.73;;
80963;SDS011;70425;59.322;13.486;2023-09-19T10:26:59;7.60;;;1.67;;
80963;SDS011;70425;59.322;13.486;2023-09-19T10:29:49;6.93;;;1.73;;
80963;SDS011;70425;59.322;13.486;2023-09-19T10:32:40;11.57;;;1.83;;
80963;SDS011;70425;59.322;13.486;2023-09-19T10:35:31;8.13;;;1.90;;
80963;SDS011;70425;59.322;13.486;2023-09-19T10:38:22;3.33;;;1.40;;
80963;SDS011;70425;59.322;13.486;2023-09-19T10:41:14;11.37;;;2.20;;
80963;SDS011;70425;59.322;13.486;2023-09-19T10:44:06;6.67;;;1.67;;
80963;SDS011;70425;59.322;13.486;2023-09-19T10:52:30;7.07;;;1.83;;
80963;SDS011;70425;59.322;13.486;2023-09-19T10:55:21;6.50;;;1.63;;
80963;SDS011;70425;59.322;13.486;2023-09-19T11:02:30;4.80;;;1.63;;
80963;SDS011;70425;59.322;13.486;2023-09-19T11:05:19;7.27;;;1.70;;
80963;SDS011;70425;59.322;13.486;2023-09-19T11:08:09;5.90;;;1.50;;
80963;SDS011;70425;59.322;13.486;2023-09-19T11:10:59;2.17;;;1.40;;
80963;SDS011;70425;59.322;13.486;2023-09-19T11:13:49;3.57;;;1.50;;
80963;SDS011;70425;59.322;13.486;2023-09-19T11:20:33;4.00;;;1.00;;
80963;SDS011;70425;59.322;13.486;2023-09-19T11:23:32;6.13;;;1.77;;
80963;SDS011;70425;59.322;13.486;2023-09-19T11:26:32;4.50;;;1.20;;
80963;SDS011;70425;59.322;13.486;2023-09-19T11:32:15;5.57;;;1.70;;
80963;SDS011;70425;59.322;13.486;2023-09-19T11:35:10;4.83;;;1.43;;
80963;SDS011;70425;59.322;13.486;2023-09-19T11:38:00;5.53;;;1.60;;
80963;SDS011;70425;59.322;13.486;2023-09-19T11:43:33;4.57;;;1.70;;
80963;SDS011;70425;59.322;13.486;2023-09-19T11:49:10;3.47;;;1.77;;
80963;SDS011;70425;59.322;13.486;2023-09-19T11:52:01;5.03;;;1.70;;
80963;SDS011;70425;59.322;13.486;2023-09-19T11:54:54;5.20;;;1.17;;
80963;SDS011;70425;59.322;13.486;2023-09-19T11:57:43;8.40;;;1.60;;
80963;SDS011;70425;59.322;13.486;2023-09-19T12:00:32;3.17;;;1.20;;
80963;SDS011;70425;59.322;13.486;2023-09-19T12:03:22;9.27;;;1.70;;
80963;SDS011;70425;59.322;13.486;2023-09-19T12:06:15;5.43;;;1.90;;
80963;SDS011;70425;59.322;13.486;2023-09-19T12:09:04;3.57;;;1.37;;
80963;SDS011;70425;59.322;13.486;2023-09-19T12:11:54;7.40;;;1.47;;
80963;SDS011;70425;59.322;13.486;2023-09-19T12:14:47;3.60;;;1.40;;
80963;SDS011;70425;59.322;13.486;2023-09-19T12:17:39;4.60;;;1.70;;
80963;SDS011;70425;59.322;13.486;2023-09-19T12:20:45;5.90;;;1.37;;
80963;SDS011;70425;59.322;13.486;2023-09-19T12:23:36;5.07;;;1.50;;
80963;SDS011;70425;59.322;13.486;2023-09-19T12:26:27;5.37;;;1.37;;
80963;SDS011;70425;59.322;13.486;2023-09-19T12:29:19;5.77;;;1.40;;
80963;SDS011;70425;59.322;13.486;2023-09-19T12:34:54;7.63;;;1.70;;
80963;SDS011;70425;59.322;13.486;2023-09-19T12:37:44;2.07;;;1.20;;
80963;SDS011;70425;59.322;13.486;2023-09-19T12:43:20;4.73;;;1.30;;
80963;SDS011;70425;59.322;13.486;2023-09-19T12:52:04;2.23;;;1.17;;
80963;SDS011;70425;59.322;13.486;2023-09-19T12:54:53;7.83;;;1.10;;
80963;SDS011;70425;59.322;13.486;2023-09-19T12:57:43;4.13;;;1.43;;
80963;SDS011;70425;59.322;13.486;2023-09-19T13:11:10;9.53;;;1.57;;
80963;SDS011;70425;59.322;13.486;2023-09-19T13:14:13;2.17;;;1.10;;
80963;SDS011;70425;59.322;13.486;2023-09-19T13:17:04;4.23;;;1.07;;
80963;SDS011;70425;59.322;13.486;2023-09-19T13:19:56;7.97;;;1.87;;
80963;SDS011;70425;59.322;13.486;2023-09-19T13:22:45;8.80;;;2.10;;
80963;SDS011;70425;59.322;13.486;2023-09-19T13:25:37;7.53;;;1.30;;
80963;SDS011;70425;59.322;13.486;2023-09-19T13:28:30;5.30;;;1.00;;
80963;SDS011;70425;59.322;13.486;2023-09-19T13:31:20;9.80;;;1.63;;
80963;SDS011;70425;59.322;13.486;2023-09-19T13:34:05;8.90;;;1.47;;
80963;SDS011;70425;59.322;13.486;2023-09-19T13:36:54;2.57;;;1.07;;
80963;SDS011;70425;59.322;13.486;2023-09-19T13:39:44;5.90;;;1.47;;
80963;SDS011;70425;59.322;13.486;2023-09-19T13:42:34;5.97;;;1.33;;
80963;SDS011;70425;59.322;13.486;2023-09-19T13:45:26;9.10;;;1.43;;
80963;SDS011;70425;59.322;13.486;2023-09-19T13:48:16;4.27;;;1.07;;
80963;SDS011;70425;59.322;13.486;2023-09-19T13:51:08;4.97;;;1.07;;
80963;SDS011;70425;59.322;13.486;2023-09-19T13:53:56;5.63;;;1.13;;
80963;SDS011;70425;59.322;13.486;2023-09-19T13:56:45;6.50;;;1.33;;
80963;SDS011;70425;59.322;13.486;2023-09-19T13:59:34;5.10;;;1.13;;
80963;SDS011;70425;59.322;13.486;2023-09-19T14:02:22;8.77;;;1.27;;
80963;SDS011;70425;59.322;13.486;2023-09-19T14:08:26;7.73;;;1.60;;
80963;SDS011;70425;59.322;13.486;2023-09-19T14:24:18;7.87;;;1.20;;
80963;SDS011;70425;59.322;13.486;2023-09-19T14:29:48;8.23;;;1.30;;
80963;SDS011;70425;59.322;13.486;2023-09-19T14:32:37;7.43;;;1.50;;
80963;SDS011;70425;59.322;13.486;2023-09-19T14:35:27;8.47;;;1.37;;
80963;SDS011;70425;59.322;13.486;2023-09-19T14:38:15;8.03;;;1.60;;
80963;SDS011;70425;59.322;13.486;2023-09-19T14:41:05;7.70;;;1.37;;
80963;SDS011;70425;59.322;13.486;2023-09-19T14:43:55;5.07;;;1.33;;
80963;SDS011;70425;59.322;13.486;2023-09-19T14:46:37;4.53;;;1.30;;
80963;SDS011;70425;59.322;13.486;2023-09-19T14:49:25;8.13;;;1.70;;
80963;SDS011;70425;59.322;13.486;2023-09-19T14:52:13;8.97;;;1.80;;
80963;SDS011;70425;59.322;13.486;2023-09-19T14:55:02;9.30;;;1.73;;
80963;SDS011;70425;59.322;13.486;2023-09-19T14:57:51;16.77;;;1.97;;
80963;SDS011;70425;59.322;13.486;2023-09-19T15:00:41;5.67;;;1.53;;
80963;SDS011;70425;59.322;13.486;2023-09-19T15:03:32;11.63;;;1.40;;
80963;SDS011;70425;59.322;13.486;2023-09-19T15:06:21;9.03;;;1.50;;
80963;SDS011;70425;59.322;13.486;2023-09-19T15:09:12;3.50;;;1.07;;
80963;SDS011;70425;59.322;13.486;2023-09-19T15:12:03;13.17;;;1.70;;
80963;SDS011;70425;59.322;13.486;2023-09-19T15:14:53;11.17;;;1.87;;
80963;SDS011;70425;59.322;13.486;2023-09-19T15:17:42;6.90;;;1.33;;
80963;SDS011;70425;59.322;13.486;2023-09-19T15:20:31;5.93;;;1.50;;
80963;SDS011;70425;59.322;13.486;2023-09-19T15:23:19;12.93;;;1.70;;
80963;SDS011;70425;59.322;13.486;2023-09-19T15:26:09;4.40;;;0.90;;
80963;SDS011;70425;59.322;13.486;2023-09-19T15:31:44;7.13;;;1.60;;
80963;SDS011;70425;59.322;13.486;2023-09-19T15:34:32;5.63;;;1.43;;
80963;SDS011;70425;59.322;13.486;2023-09-19T15:37:20;12.17;;;1.47;;
80963;SDS011;70425;59.322;13.486;2023-09-19T15:40:10;4.67;;;1.60;;
80963;SDS011;70425;59.322;13.486;2023-09-19T15:42:59;8.20;;;1.83;;
80963;SDS011;70425;59.322;13.486;2023-09-19T15:45:49;11.73;;;1.60;;
80963;SDS011;70425;59.322;13.486;2023-09-19T15:48:37;4.47;;;1.43;;
80963;SDS011;70425;59.322;13.486;2023-09-19T15:51:25;7.73;;;1.50;;
80963;SDS011;70425;59.322;13.486;2023-09-19T15:54:16;5.80;;;1.30;;
80963;SDS011;70425;59.322;13.486;2023-09-19T15:59:51;10.27;;;1.60;;
80963;SDS011;70425;59.322;13.486;2023-09-19T16:02:39;9.17;;;1.70;;
80963;SDS011;70425;59.322;13.486;2023-09-19T16:05:28;12.70;;;1.60;;
80963;SDS011;70425;59.322;13.486;2023-09-19T16:11:16;3.90;;;1.40;;
80963;SDS011;70425;59.322;13.486;2023-09-19T16:28:33;8.90;;;1.67;;
80963;SDS011;70425;59.322;13.486;2023-09-19T16:31:48;3.20;;;0.70;;
80963;SDS011;70425;59.322;13.486;2023-09-19T16:34:38;9.87;;;1.57;;
80963;SDS011;70425;59.322;13.486;2023-09-19T16:37:27;6.93;;;1.40;;
80963;SDS011;70425;59.322;13.486;2023-09-19T16:40:16;7.13;;;1.27;;
80963;SDS011;70425;59.322;13.486;2023-09-19T16:43:05;5.93;;;1.37;;
80963;SDS011;70425;59.322;13.486;2023-09-19T16:45:53;8.80;;;1.50;;
80963;SDS011;70425;59.322;13.486;2023-09-19T16:48:43;6.63;;;1.70;;
80963;SDS011;70425;59.322;13.486;2023-09-19T16:51:32;8.47;;;1.60;;
80963;SDS011;70425;59.322;13.486;2023-09-19T16:54:22;11.57;;;1.60;;
80963;SDS011;70425;59.322;13.486;2023-09-19T17:00:04;9.10;;;1.57;;
80963;SDS011;70425;59.322;13.486;2023-09-19T17:02:56;9.27;;;2.00;;
80963;SDS011;70425;59.322;13.486;2023-09-19T17:05:47;3.50;;;1.10;;
80963;SDS011;70425;59.322;13.486;2023-09-19T17:08:35;8.57;;;1.53;;
80963;SDS011;70425;59.322;13.486;2023-09-19T17:11:24;11.33;;;1.40;;
80963;SDS011;70425;59.322;13.486;2023-09-19T17:14:13;8.83;;;1.70;;
80963;SDS011;70425;59.322;13.486;2023-09-19T17:17:02;6.63;;;1.37;;
80963;SDS011;70425;59.322;13.486;2023-09-19T17:19:51;3.27;;;1.10;;
80963;SDS011;70425;59.322;13.486;2023-09-19T17:22:40;6.37;;;1.50;;
80963;SDS011;70425;59.322;13.486;2023-09-19T17:25:30;9.20;;;1.60;;
80963;SDS011;70425;59.322;13.486;2023-09-19T17:28:19;8.07;;;1.53;;
80963;SDS011;70425;59.322;13.486;2023-09-19T17:31:09;6.33;;;1.30;;
80963;SDS011;70425;59.322;13.486;2023-09-19T17:33:58;10.60;;;1.70;;
80963;SDS011;70425;59.322;13.486;2023-09-19T17:36:47;10.33;;;1.83;;
80963;SDS011;70425;59.322;13.486;2023-09-19T17:39:36;11.67;;;1.80;;
80963;SDS011;70425;59.322;13.486;2023-09-19T17:42:25;4.60;;;1.43;;
80963;SDS011;70425;59.322;13.486;2023-09-19T17:45:14;5.00;;;1.50;;
80963;SDS011;70425;59.322;13.486;2023-09-19T17:48:05;4.50;;;1.33;;
80963;SDS011;70425;59.322;13.486;2023-09-19T17:50:59;13.47;;;1.50;;
80963;SDS011;70425;59.322;13.486;2023-09-19T17:53:49;4.70;;;1.57;;
80963;SDS011;70425;59.322;13.486;2023-09-19T17:56:34;4.80;;;1.20;;
80963;SDS011;70425;59.322;13.486;2023-09-19T17:59:23;3.53;;;1.20;;
80963;SDS011;70425;59.322;13.486;2023-09-19T18:02:11;2.77;;;0.97;;
80963;SDS011;70425;59.322;13.486;2023-09-19T18:15:48;2.47;;;1.30;;
80963;SDS011;70425;59.322;13.486;2023-09-19T18:21:29;4.97;;;1.10;;
80963;SDS011;70425;59.322;13.486;2023-09-19T18:24:19;5.40;;;1.40;;
80963;SDS011;70425;59.322;13.486;2023-09-19T18:27:07;4.73;;;0.93;;
80963;SDS011;70425;59.322;13.486;2023-09-19T18:29:56;3.43;;;1.30;;
80963;SDS011;70425;59.322;13.486;2023-09-19T18:32:44;5.10;;;1.13;;
80963;SDS011;70425;59.322;13.486;2023-09-19T18:35:34;3.27;;;1.20;;
80963;SDS011;70425;59.322;13.486;2023-09-19T18:38:23;2.23;;;1.20;;
80963;SDS011;70425;59.322;13.486;2023-09-19T18:41:12;2.77;;;0.97;;
80963;SDS011;70425;59.322;13.486;2023-09-19T18:59:52;5.63;;;1.60;;
80963;SDS011;70425;59.322;13.486;2023-09-19T19:18:27;3.63;;;1.40;;
80963;SDS011;70425;59.322;13.486;2023-09-19T19:36:12;6.23;;;1.33;;
80963;SDS011;70425;59.322;13.486;2023-09-19T19:43:13;2.03;;;0.90;;
80963;SDS011;70425;59.322;13.486;2023-09-19T21:00:04;3.03;;;1.00;;
80963;SDS011;70425;59.322;13.486;2023-09-19T21:10:54;4.87;;;0.90;;
80963;SDS011;70425;59.322;13.486;2023-09-19T21:17:59;1.43;;;1.00;;
80963;SDS011;70425;59.322;13.486;2023-09-19T22:32:53;2.50;;;0.80;;
80963;SDS011;70425;59.322;13.486;2023-09-19T22:46:37;1.33;;;0.80;;
80963;SDS011;70425;59.322;13.486;2023-09-19T23:05:19;1.33;;;0.83;;
80963;SDS011;70425;59.322;13.486;2023-09-19T23:11:59;1.20;;;0.70;;
80963;SDS011;70425;59.322;13.486;2023-09-19T23:20:10;1.60;;;0.90;;
80963;SDS011;70425;59.322;13.486;2023-09-19T23:23:02;2.53;;;1.20;;
80963;SDS011;70425;59.322;13.486;2023-09-19T23:25:54;0.70;;;0.70;;
